Accueil
METAR-TAF:

METAR-TAF

Aéroports :

Aéroport international de Punta Cana

Punta Cana, République dominicaine

latitude: 18-34N, longitude: 068-22W, altitude: 12 m

Observation

Le bulletin a été fait il y a 2 heures et 59 minutes, à 06:00 UTC
Vent calme
Température 24°C
Humidité 89%
Pression 1017 hPa
Visibilité 10 km ou plus
Quelques nuages à une hauteur de 1800 ft

METAR: MDPC 190600Z 00000KT 9999 FEW018 24/22 Q1017

Heure: 04:59 (08:59 UTC)

Prévision

Le bulletin a été fait il y a 4 heures et 59 minutes, à 04:00 UTC
Prévision valable du 19 à 06 UTC au 20 à 06 UTC
Vent 8 kt de sud/sud-est
Visibilité 10 km ou plus
Nuages épars à une hauteur de 1800 ft
Evoluant progressivement
du 19 à 06 UTC au 19 à 08 UTC
Vent kt de nord

TAF: MDPC 190400Z 1906/2006 16008KT 9999 SCT018 BECMG 1906/1908 00000KT

Observations et prévisions météorologiques de plus de 4000 aéroports (messages METAR et TAF).

Les stations disponibles sont représentées par des disques jaunes et rouges sur la carte.

Passer la souris dessus pour voir le nom de la station.

Cliquer dessus pour voir les observations et prévisions météorologiques.

Pour changer de carte: cliquez sur les boutons verts avec une croix noire pour zoomer, sur le bouton vert avec un tiret pour effectuer un zoom arrière, ou sur les flèches vertes pour les cartes adjacentes.


METAR-TAF: